createdAt,value
2018-11-06T00:00:16.966Z,85.33
2018-11-06T00:02:47.151Z,85.27
2018-11-06T00:05:17.972Z,74.73
2018-11-06T00:07:47.050Z,85.13
2018-11-06T00:10:16.202Z,78.80
2018-11-06T00:12:45.331Z,84.73
2018-11-06T00:15:14.485Z,77.33
2018-11-06T00:17:43.649Z,84.80
2018-11-06T00:20:13.880Z,82.60
2018-11-06T00:22:43.025Z,85.07
2018-11-06T00:25:13.099Z,81.87
2018-11-06T00:27:42.273Z,77.83
2018-11-06T00:30:13.647Z,86.70
2018-11-06T00:32:43.334Z,80.53
2018-11-06T00:35:14.575Z,81.90
2018-11-06T00:37:44.637Z,82.10
2018-11-06T00:40:13.989Z,85.37
2018-11-06T00:42:43.124Z,89.60
2018-11-06T00:45:14.545Z,79.83
2018-11-06T00:47:43.715Z,96.70
2018-11-06T00:50:13.892Z,107.50
2018-11-06T00:52:43.880Z,86.07
2018-11-06T00:55:13.039Z,101.83
2018-11-06T00:57:43.405Z,96.57
2018-11-06T01:00:15.109Z,92.57
2018-11-06T01:02:44.338Z,102.50
2018-11-06T01:05:14.152Z,107.77
2018-11-06T01:07:43.947Z,119.53
2018-11-06T01:10:13.080Z,103.10
2018-11-06T01:12:42.216Z,95.90
2018-11-06T01:15:13.638Z,97.63
2018-11-06T01:17:43.793Z,93.33
2018-11-06T01:20:15.300Z,98.30
2018-11-06T01:22:44.710Z,109.80
2018-11-06T01:25:14.239Z,102.13
2018-11-06T01:27:43.381Z,103.33
2018-11-06T01:30:16.286Z,107.10
2018-11-06T01:32:46.015Z,86.37
2018-11-06T01:35:15.814Z,94.07
2018-11-06T01:37:45.605Z,95.40
2018-11-06T01:40:15.869Z,97.90
2018-11-06T01:42:45.535Z,96.57
2018-11-06T01:45:15.683Z,95.50
2018-11-06T01:47:44.831Z,96.77
2018-11-06T01:50:15.014Z,104.07
2018-11-06T01:52:45.218Z,90.17
2018-11-06T01:55:14.398Z,104.47
2018-11-06T01:57:43.539Z,99.07
2018-11-06T02:00:15.312Z,89.80
2018-11-06T02:02:44.447Z,99.50
2018-11-06T02:05:14.791Z,95.73
2018-11-06T02:07:45.289Z,90.57
2018-11-06T02:10:15.152Z,95.90
2018-11-06T02:12:45.216Z,98.10
2018-11-06T02:15:14.416Z,89.27
2018-11-06T02:17:44.367Z,89.57
2018-11-06T02:20:14.175Z,103.33
2018-11-06T02:22:44.155Z,96.80
2018-11-06T02:25:13.779Z,112.40
2018-11-06T02:27:49.736Z,96.63
2018-11-06T02:30:18.861Z,97.77
2018-11-06T02:32:48.270Z,102.00
2018-11-06T02:35:17.371Z,93.33
2018-11-06T02:37:46.512Z,97.93
2018-11-06T02:40:16.443Z,107.67
2018-11-06T02:42:45.587Z,97.53
2018-11-06T02:45:14.958Z,97.00
2018-11-06T02:47:44.489Z,92.83
2018-11-06T02:50:14.507Z,90.43
2018-11-06T02:52:44.179Z,98.00
2018-11-06T02:55:13.702Z,103.57
2018-11-06T02:57:43.345Z,104.67
2018-11-06T03:00:15.099Z,98.67
2018-11-06T03:02:44.866Z,98.47
2018-11-06T03:05:14.001Z,93.50
2018-11-06T03:07:43.168Z,105.17
2018-11-06T03:10:13.115Z,98.53
2018-11-06T03:12:43.240Z,100.57
2018-11-06T03:15:13.614Z,94.23
2018-11-06T03:17:42.799Z,96.73
2018-11-06T03:20:12.654Z,99.37
2018-11-06T03:22:42.218Z,113.07
2018-11-06T03:25:11.655Z,97.53
2018-11-06T03:27:40.758Z,106.50
2018-11-06T03:30:13.350Z,103.63
2018-11-06T03:32:42.553Z,95.63
2018-11-06T03:35:12.951Z,97.50
2018-11-06T03:37:42.146Z,108.93
2018-11-06T03:40:11.743Z,119.37
2018-11-06T03:42:41.770Z,97.70
2018-11-06T03:45:11.783Z,108.73
2018-11-06T03:47:40.919Z,98.33
2018-11-06T03:50:11.522Z,100.30
2018-11-06T03:52:40.688Z,111.60
2018-11-06T03:55:10.107Z,117.07
2018-11-06T03:57:39.217Z,108.17
2018-11-06T04:00:11.663Z,99.17
2018-11-06T04:02:41.108Z,90.97
2018-11-06T04:05:10.604Z,110.03
2018-11-06T04:07:39.784Z,107.00
2018-11-06T04:10:10.215Z,95.83
2018-11-06T04:12:40.036Z,108.83
2018-11-06T04:15:09.592Z,101.87
2018-11-06T04:17:38.831Z,103.60
2018-11-06T04:20:08.845Z,110.00
2018-11-06T04:22:38.021Z,100.70
2018-11-06T04:25:07.685Z,112.33
2018-11-06T04:27:36.851Z,100.13
2018-11-06T04:30:08.974Z,100.67
2018-11-06T04:32:38.112Z,107.60
2018-11-06T04:35:07.886Z,106.50
2018-11-06T04:37:37.224Z,93.33
2018-11-06T04:40:08.466Z,110.90
2018-11-06T04:42:37.599Z,106.93
2018-11-06T04:45:07.366Z,121.73
2018-11-06T04:47:36.537Z,105.20
2018-11-06T04:50:05.920Z,97.80
2018-11-06T04:52:35.012Z,99.90
2018-11-06T04:55:04.210Z,93.17
2018-11-06T04:57:33.337Z,110.70
2018-11-06T05:00:02.435Z,98.57
2018-11-06T05:02:31.556Z,100.43
2018-11-06T05:05:00.687Z,108.83
2018-11-06T05:07:29.846Z,89.07
2018-11-06T05:09:58.927Z,95.07
2018-11-06T05:12:28.050Z,92.03
2018-11-06T05:14:57.228Z,107.27
2018-11-06T05:17:27.201Z,86.90
2018-11-06T05:19:56.347Z,83.50
2018-11-06T05:22:25.542Z,89.57
2018-11-06T05:24:54.695Z,90.87
2018-11-06T05:27:23.873Z,89.57
2018-11-06T05:29:52.919Z,88.40
2018-11-06T05:32:22.059Z,97.17
2018-11-06T05:34:51.274Z,79.03
2018-11-06T05:37:20.365Z,89.53
2018-11-06T05:40:06.745Z,87.77
2018-11-06T05:42:35.882Z,90.23
2018-11-06T05:45:05.043Z,82.53
2018-11-06T05:47:34.185Z,84.13
2018-11-06T05:50:03.325Z,89.30
2018-11-06T05:52:32.448Z,96.40
2018-11-06T05:55:01.599Z,88.33
2018-11-06T05:57:30.685Z,85.03
2018-11-06T05:59:59.797Z,84.07
2018-11-06T06:02:29.022Z,94.33
2018-11-06T06:04:58.102Z,84.87
2018-11-06T06:07:27.281Z,89.30
2018-11-06T06:09:56.403Z,87.37
2018-11-06T06:12:25.547Z,94.17
2018-11-06T06:14:54.701Z,87.13
2018-11-06T06:17:23.997Z,84.53
2018-11-06T06:19:53.168Z,74.10
2018-11-06T06:22:22.277Z,87.33
2018-11-06T06:24:51.418Z,75.57
2018-11-06T06:27:20.553Z,78.43
2018-11-06T06:29:49.670Z,78.57
2018-11-06T06:32:18.798Z,75.40
2018-11-06T06:34:47.955Z,72.30
2018-11-06T06:37:17.021Z,73.60
2018-11-06T06:39:46.206Z,76.40
2018-11-06T06:42:15.333Z,80.37
2018-11-06T06:44:44.522Z,69.23
2018-11-06T06:47:13.655Z,74.47
2018-11-06T06:49:42.765Z,87.00
2018-11-06T06:52:11.910Z,73.17
2018-11-06T06:54:41.093Z,80.87
2018-11-06T06:57:10.179Z,69.57
2018-11-06T06:59:39.315Z,68.47
2018-11-06T07:02:08.448Z,77.93
2018-11-06T07:04:37.576Z,66.50
2018-11-06T07:07:06.870Z,71.73
2018-11-06T07:09:36.181Z,75.03
2018-11-06T07:12:05.363Z,76.80
2018-11-06T07:14:34.643Z,71.03
2018-11-06T07:17:03.771Z,73.83
2018-11-06T07:19:32.906Z,81.83
2018-11-06T07:22:02.007Z,71.93
2018-11-06T07:24:31.172Z,63.63
2018-11-06T07:27:00.294Z,69.83
2018-11-06T07:29:29.418Z,75.30
2018-11-06T07:31:58.562Z,72.83
2018-11-06T07:34:27.822Z,69.73
2018-11-06T07:36:56.910Z,71.57
2018-11-06T07:39:26.058Z,72.30
2018-11-06T07:41:55.245Z,65.37
2018-11-06T07:44:24.395Z,74.03
2018-11-06T07:46:53.521Z,72.83
2018-11-06T07:49:22.663Z,70.47
2018-11-06T07:51:51.823Z,59.30
2018-11-06T07:54:20.911Z,63.87
2018-11-06T07:56:50.053Z,64.00
2018-11-06T07:59:19.181Z,73.73
2018-11-06T08:01:55.049Z,65.30
2018-11-06T08:04:24.265Z,62.77
2018-11-06T08:06:53.319Z,61.47
2018-11-06T08:09:22.566Z,61.13
2018-11-06T08:11:51.703Z,63.37
2018-11-06T08:14:20.839Z,61.80
2018-11-06T08:16:50.029Z,60.83
2018-11-06T08:19:19.513Z,58.83
2018-11-06T08:21:48.592Z,50.83
2018-11-06T08:24:17.783Z,63.70
2018-11-06T08:26:46.882Z,55.00
2018-11-06T08:29:16.018Z,59.90
2018-11-06T08:31:45.635Z,57.73
2018-11-06T08:34:14.405Z,52.30
2018-11-06T08:36:43.578Z,58.23
2018-11-06T08:39:12.647Z,54.50
2018-11-06T08:41:41.979Z,57.00
2018-11-06T08:44:11.085Z,53.43
2018-11-06T08:46:40.245Z,56.00
2018-11-06T08:49:09.404Z,49.80
2018-11-06T08:51:39.091Z,48.77
2018-11-06T08:54:08.242Z,40.20
2018-11-06T08:56:37.370Z,37.53
2018-11-06T08:59:06.511Z,35.63
2018-11-06T09:01:35.647Z,36.00
2018-11-06T09:04:04.890Z,36.43
2018-11-06T09:06:34.004Z,36.90
2018-11-06T09:09:03.288Z,35.50
2018-11-06T09:11:32.424Z,31.43
2018-11-06T09:14:01.545Z,33.33
2018-11-06T09:16:30.730Z,31.73
2018-11-06T09:18:59.878Z,33.03
2018-11-06T09:21:29.110Z,32.07
2018-11-06T09:23:58.219Z,33.70
2018-11-06T09:26:27.333Z,35.23
2018-11-06T09:28:56.845Z,33.67
2018-11-06T09:31:27.247Z,31.70
2018-11-06T09:33:56.565Z,43.93
2018-11-06T09:36:25.878Z,38.93
2018-11-06T09:38:55.033Z,40.93
2018-11-06T09:41:24.613Z,37.60
2018-11-06T09:43:53.859Z,45.13
2018-11-06T09:46:23.458Z,46.33
2018-11-06T09:48:52.598Z,46.93
2018-11-06T09:51:21.750Z,47.17
2018-11-06T09:53:50.861Z,47.87
2018-11-06T09:56:20.020Z,52.63
2018-11-06T09:58:49.162Z,43.70
2018-11-06T10:01:18.280Z,46.87
2018-11-06T10:03:47.519Z,45.67
2018-11-06T10:06:16.719Z,47.50
2018-11-06T10:08:45.790Z,47.93
2018-11-06T10:11:14.935Z,45.43
2018-11-06T10:13:44.042Z,48.30
2018-11-06T10:16:13.190Z,48.27
2018-11-06T10:18:42.459Z,45.30
2018-11-06T10:21:11.556Z,42.27
2018-11-06T10:23:40.715Z,44.17
2018-11-06T10:26:09.911Z,46.37
2018-11-06T10:28:39.005Z,46.03
2018-11-06T10:31:08.151Z,45.43
2018-11-06T10:33:37.269Z,43.80
2018-11-06T10:36:06.544Z,44.73
2018-11-06T10:38:35.643Z,48.40
2018-11-06T10:41:04.787Z,48.53
2018-11-06T10:43:33.988Z,47.67
2018-11-06T10:46:03.118Z,42.70
2018-11-06T10:48:32.248Z,45.40
2018-11-06T10:51:01.437Z,46.43
2018-11-06T10:53:30.603Z,46.53
2018-11-06T10:55:59.685Z,42.90
2018-11-06T10:58:28.777Z,46.83
2018-11-06T11:01:03.179Z,51.17
2018-11-06T11:03:38.934Z,43.47
2018-11-06T11:06:08.046Z,42.67
2018-11-06T11:08:37.191Z,47.27
2018-11-06T11:11:06.395Z,51.13
2018-11-06T11:13:35.573Z,43.40
2018-11-06T11:16:04.696Z,51.40
2018-11-06T11:18:33.859Z,43.57
2018-11-06T11:21:03.130Z,47.20
2018-11-06T11:23:32.246Z,43.40
2018-11-06T11:26:01.378Z,41.90
2018-11-06T11:28:30.507Z,39.90
2018-11-06T11:31:00.093Z,46.60
2018-11-06T11:33:29.248Z,39.67
2018-11-06T11:35:58.383Z,41.03
2018-11-06T11:38:27.531Z,34.70
2018-11-06T11:40:56.659Z,42.60
2018-11-06T11:43:25.774Z,37.43
2018-11-06T11:45:54.937Z,39.50
2018-11-06T11:48:23.966Z,39.57
2018-11-06T11:50:53.178Z,42.13
2018-11-06T11:53:22.319Z,39.50
2018-11-06T11:55:51.391Z,34.90
2018-11-06T11:58:20.539Z,44.13
2018-11-06T12:00:49.667Z,35.37
2018-11-06T12:03:18.838Z,37.53
2018-11-06T12:05:47.962Z,35.67
2018-11-06T12:08:17.068Z,36.17
2018-11-06T12:10:46.221Z,34.03
2018-11-06T12:13:15.321Z,33.63
2018-11-06T12:15:44.452Z,38.83
2018-11-06T12:18:13.623Z,37.77
2018-11-06T12:20:42.678Z,40.53
2018-11-06T12:23:11.817Z,34.47
2018-11-06T12:25:41.101Z,37.27
2018-11-06T12:28:10.116Z,30.53
2018-11-06T12:30:39.283Z,33.43
2018-11-06T12:33:08.401Z,35.80
2018-11-06T12:35:37.478Z,29.47
2018-11-06T12:38:06.627Z,39.60
2018-11-06T12:40:35.728Z,29.70
2018-11-06T12:43:04.860Z,30.20
2018-11-06T12:45:33.947Z,29.50
2018-11-06T12:48:03.106Z,29.50
2018-11-06T12:50:32.266Z,30.00
2018-11-06T12:53:01.389Z,31.40
2018-11-06T12:55:30.511Z,26.77
2018-11-06T12:57:59.671Z,27.70
2018-11-06T13:00:28.842Z,26.13
2018-11-06T13:02:57.971Z,35.97
2018-11-06T13:05:27.073Z,32.53
2018-11-06T13:07:56.187Z,30.53
2018-11-06T13:10:25.365Z,27.17
2018-11-06T13:12:54.460Z,41.30
2018-11-06T13:15:23.625Z,33.00
2018-11-06T13:17:52.741Z,35.20
2018-11-06T13:20:21.855Z,35.00
2018-11-06T13:22:50.991Z,27.17
2018-11-06T13:25:20.080Z,32.10
2018-11-06T13:27:49.198Z,28.63
2018-11-06T13:30:19.271Z,35.30
2018-11-06T13:32:49.090Z,29.70
2018-11-06T13:35:18.228Z,27.70
2018-11-06T13:37:47.373Z,28.80
2018-11-06T13:40:17.067Z,34.87
2018-11-06T13:42:46.724Z,27.37
2018-11-06T13:45:18.600Z,42.27
2018-11-06T13:47:47.673Z,26.17
2018-11-06T13:50:16.799Z,24.63
2018-11-06T13:52:45.925Z,29.37
2018-11-06T13:55:15.866Z,27.37
2018-11-06T13:57:45.860Z,25.57
2018-11-06T14:00:17.451Z,22.90
2018-11-06T14:02:46.709Z,28.90
2018-11-06T14:05:16.025Z,25.23
2018-11-06T14:07:45.331Z,26.40
2018-11-06T14:10:14.462Z,28.73
2018-11-06T14:12:44.468Z,31.73
2018-11-06T14:15:13.610Z,27.43
2018-11-06T14:17:42.730Z,22.77
2018-11-06T14:20:13.254Z,26.60
2018-11-06T14:22:42.561Z,28.37
2018-11-06T14:25:11.668Z,27.57
2018-11-06T14:27:40.859Z,32.10
2018-11-06T14:30:16.692Z,25.67
2018-11-06T14:32:46.215Z,24.00
2018-11-06T14:35:16.349Z,32.30
2018-11-06T14:37:46.068Z,25.73
2018-11-06T14:40:15.998Z,24.93
2018-11-06T14:42:46.040Z,26.03
2018-11-06T14:45:16.285Z,27.20
2018-11-06T14:47:45.460Z,23.53
2018-11-06T14:50:14.695Z,29.83
2018-11-06T14:52:43.809Z,26.23
2018-11-06T14:55:14.328Z,26.03
2018-11-06T14:57:43.440Z,27.60
2018-11-06T15:00:16.289Z,24.80
2018-11-06T15:02:46.845Z,28.53
2018-11-06T15:05:16.421Z,26.60
2018-11-06T15:07:45.608Z,29.10
2018-11-06T15:10:14.782Z,25.77
2018-11-06T15:12:44.256Z,24.67
2018-11-06T15:15:13.950Z,28.10
2018-11-06T15:17:44.283Z,27.77
2018-11-06T15:20:15.192Z,32.97
2018-11-06T15:22:44.685Z,26.00
2018-11-06T15:25:14.510Z,30.93
2018-11-06T15:27:43.639Z,27.63
2018-11-06T15:30:14.142Z,37.17
2018-11-06T15:32:43.333Z,34.80
2018-11-06T15:35:14.696Z,32.13
2018-11-06T15:37:43.855Z,34.73
2018-11-06T15:40:15.548Z,33.97
2018-11-06T15:42:44.835Z,36.93
2018-11-06T15:45:15.170Z,31.10
2018-11-06T15:47:45.217Z,31.10
2018-11-06T15:50:15.792Z,35.50
2018-11-06T15:52:45.739Z,38.53
2018-11-06T15:55:14.889Z,32.57
2018-11-06T15:57:44.033Z,34.73
2018-11-06T16:00:16.505Z,36.50
2018-11-06T16:02:45.935Z,37.97
2018-11-06T16:05:15.093Z,30.73
2018-11-06T16:07:44.273Z,39.00
2018-11-06T16:10:16.795Z,31.77
2018-11-06T16:12:46.176Z,32.27
2018-11-06T16:15:15.330Z,33.70
2018-11-06T16:17:44.730Z,34.23
2018-11-06T16:20:15.164Z,39.00
2018-11-06T16:22:44.636Z,36.27
2018-11-06T16:25:15.063Z,43.20
2018-11-06T16:27:44.640Z,33.30
2018-11-06T16:30:15.606Z,38.00
2018-11-06T16:32:44.840Z,44.83
2018-11-06T16:35:15.324Z,49.57
2018-11-06T16:37:44.929Z,39.80
2018-11-06T16:40:14.849Z,40.50
2018-11-06T16:42:44.774Z,43.83
2018-11-06T16:45:16.472Z,38.17
2018-11-06T16:47:46.637Z,35.43
2018-11-06T16:50:16.750Z,32.93
2018-11-06T16:52:45.954Z,37.87
2018-11-06T16:55:15.530Z,41.60
2018-11-06T16:57:45.153Z,36.40
2018-11-06T17:00:16.994Z,35.60
2018-11-06T17:02:46.216Z,38.13
2018-11-06T17:05:15.838Z,31.77
2018-11-06T17:07:45.321Z,33.27
2018-11-06T17:10:15.447Z,35.23
2018-11-06T17:12:44.596Z,35.13
2018-11-06T17:15:16.231Z,34.10
2018-11-06T17:17:46.045Z,37.07
2018-11-06T17:20:15.722Z,36.00
2018-11-06T17:22:44.830Z,42.33
2018-11-06T17:25:16.332Z,34.90
2018-11-06T17:27:45.447Z,37.10
2018-11-06T17:30:16.824Z,35.60
2018-11-06T17:32:46.065Z,39.00
2018-11-06T17:35:16.530Z,37.60
2018-11-06T17:37:45.993Z,35.97
2018-11-06T17:40:20.375Z,35.07
2018-11-06T17:42:49.529Z,37.87
2018-11-06T17:45:21.186Z,35.10
2018-11-06T17:47:50.327Z,33.83
2018-11-06T17:50:19.579Z,34.03
2018-11-06T17:52:48.750Z,42.73
2018-11-06T17:55:19.266Z,43.03
2018-11-06T17:57:48.347Z,37.23
2018-11-06T18:00:19.806Z,41.53
2018-11-06T18:02:48.949Z,45.50
2018-11-06T18:05:19.324Z,39.67
2018-11-06T18:07:48.445Z,41.90
2018-11-06T18:10:18.908Z,41.70
2018-11-06T18:12:47.981Z,40.93
2018-11-06T18:15:17.121Z,40.30
2018-11-06T18:17:46.421Z,39.50
2018-11-06T18:20:15.931Z,42.13
2018-11-06T18:22:45.609Z,45.70
2018-11-06T18:25:15.021Z,45.20
2018-11-06T18:27:44.084Z,43.97
2018-11-06T18:30:15.820Z,44.57
2018-11-06T18:32:44.918Z,46.87
2018-11-06T18:35:15.104Z,49.07
2018-11-06T18:37:44.212Z,53.60
2018-11-06T18:40:16.452Z,50.20
2018-11-06T18:42:46.484Z,51.70
2018-11-06T18:45:15.948Z,51.30
2018-11-06T18:47:45.174Z,49.70
2018-11-06T18:50:15.501Z,45.50
2018-11-06T18:52:45.882Z,51.00
2018-11-06T18:55:14.991Z,51.63
2018-11-06T18:57:44.333Z,52.43
2018-11-06T19:00:15.337Z,47.73
2018-11-06T19:02:45.789Z,51.27
2018-11-06T19:05:15.522Z,54.43
2018-11-06T19:07:44.629Z,54.47
2018-11-06T19:10:14.767Z,53.13
2018-11-06T19:12:44.172Z,62.87
2018-11-06T19:15:16.622Z,56.43
2018-11-06T19:17:46.442Z,62.10
2018-11-06T19:20:15.952Z,57.47
2018-11-06T19:22:45.115Z,56.47
2018-11-06T19:25:14.861Z,65.97
2018-11-06T19:27:44.217Z,62.37
2018-11-06T19:30:15.527Z,64.50
2018-11-06T19:32:44.608Z,76.57
2018-11-06T19:35:13.789Z,87.57
2018-11-06T19:37:43.060Z,90.03
2018-11-06T19:40:13.669Z,70.70
2018-11-06T19:42:43.601Z,62.67
2018-11-06T19:45:13.253Z,61.70
2018-11-06T19:47:42.392Z,53.03
2018-11-06T19:50:13.536Z,55.07
2018-11-06T19:52:42.635Z,51.50
2018-11-06T19:55:13.010Z,49.77
2018-11-06T19:57:42.128Z,53.47
2018-11-06T20:00:17.925Z,53.33
2018-11-06T20:02:48.218Z,51.93
2018-11-06T20:05:18.417Z,50.17
2018-11-06T20:07:48.613Z,48.27
2018-11-06T20:10:19.848Z,59.73
2018-11-06T20:12:49.893Z,58.60
2018-11-06T20:15:19.058Z,54.00
2018-11-06T20:17:48.336Z,55.83
2018-11-06T20:20:23.236Z,56.57
2018-11-06T20:22:52.395Z,64.17
2018-11-06T20:25:21.516Z,59.70
2018-11-06T20:27:51.253Z,52.20
2018-11-06T20:30:22.792Z,64.37
2018-11-06T20:32:51.876Z,53.43
2018-11-06T20:35:21.000Z,56.90
2018-11-06T20:37:50.144Z,50.30
2018-11-06T20:40:20.674Z,54.27
2018-11-06T20:42:49.899Z,61.90
2018-11-06T20:45:19.671Z,58.20
2018-11-06T20:47:48.798Z,55.73
2018-11-06T20:50:22.774Z,56.63
2018-11-06T20:52:51.948Z,58.53
2018-11-06T20:55:21.207Z,52.03
2018-11-06T20:57:50.389Z,53.10
2018-11-06T21:00:22.672Z,71.33
2018-11-06T21:02:52.882Z,63.47
2018-11-06T21:05:22.011Z,61.20
2018-11-06T21:07:51.269Z,59.80
2018-11-06T21:10:22.068Z,66.70
2018-11-06T21:12:51.186Z,62.50
2018-11-06T21:15:20.287Z,65.87
2018-11-06T21:17:49.420Z,66.70
2018-11-06T21:20:18.890Z,67.83
2018-11-06T21:22:47.950Z,71.90
2018-11-06T21:25:17.136Z,70.97
2018-11-06T21:27:46.364Z,80.27
2018-11-06T21:30:17.250Z,82.17
2018-11-06T21:32:47.718Z,81.80
2018-11-06T21:35:16.898Z,81.07
2018-11-06T21:37:46.028Z,88.70
2018-11-06T21:40:17.296Z,82.03
2018-11-06T21:42:46.907Z,81.90
2018-11-06T21:45:16.631Z,78.03
2018-11-06T21:47:46.508Z,84.20
2018-11-06T21:50:16.476Z,80.23
2018-11-06T21:52:45.632Z,90.90
2018-11-06T21:55:15.953Z,87.20
2018-11-06T21:57:45.181Z,90.77
2018-11-06T22:00:16.825Z,83.57
2018-11-06T22:02:45.882Z,79.93
2018-11-06T22:05:16.347Z,87.57
2018-11-06T22:07:45.620Z,92.33
2018-11-06T22:10:15.970Z,88.70
2018-11-06T22:12:45.633Z,95.97
2018-11-06T22:15:16.019Z,87.70
2018-11-06T22:17:45.152Z,87.03
2018-11-06T22:20:15.589Z,83.70
2018-11-06T22:22:45.233Z,87.23
2018-11-06T22:25:14.337Z,88.93
2018-11-06T22:27:43.657Z,81.07
2018-11-06T22:30:14.360Z,78.77
2018-11-06T22:32:44.015Z,82.23
2018-11-06T22:35:14.282Z,88.30
2018-11-06T22:37:43.485Z,87.43
2018-11-06T22:40:13.831Z,90.10
2018-11-06T22:42:42.926Z,98.47
2018-11-06T22:45:13.558Z,84.17
2018-11-06T22:47:42.945Z,81.83
2018-11-06T22:50:16.336Z,92.53
2018-11-06T22:52:46.279Z,93.00
2018-11-06T22:55:15.593Z,78.73
2018-11-06T22:57:44.946Z,85.90
2018-11-06T23:00:16.966Z,93.57
2018-11-06T23:02:46.070Z,85.73
2018-11-06T23:05:15.514Z,86.60
2018-11-06T23:07:49.899Z,92.53
2018-11-06T23:10:19.013Z,77.10
2018-11-06T23:12:48.129Z,83.47
2018-11-06T23:15:17.230Z,94.17
2018-11-06T23:17:46.324Z,84.13
2018-11-06T23:20:15.466Z,84.50
2018-11-06T23:22:44.593Z,83.20
2018-11-06T23:25:13.774Z,98.67
2018-11-06T23:27:43.105Z,103.53
2018-11-06T23:30:14.096Z,90.77
2018-11-06T23:32:43.438Z,86.97
2018-11-06T23:35:12.522Z,99.30
2018-11-06T23:37:41.645Z,95.80
2018-11-06T23:40:11.263Z,88.10
2018-11-06T23:42:40.686Z,93.80
2018-11-06T23:45:10.258Z,90.50
2018-11-06T23:47:39.392Z,99.40
2018-11-06T23:50:10.326Z,87.70
2018-11-06T23:52:39.691Z,87.93
2018-11-06T23:55:09.267Z,94.97
2018-11-06T23:57:38.352Z,101.57
